Time;durP1;ratioP1;P1;durP2;ratioP2;P2;SDS_P1;SDS_P2;PMS_P1;PMS_P2;Temp;Humidity;BMP_temperature;BMP_pressure;BME280_temperature;BME280_humidity;BME280_pressure;Samples;Min_cycle;Max_cycle;Signal;HPM_P1;HPM_P2
2022/08/12 00:43:27;;;;;;;0.00;0.00;;;20.70;62.70;;;;;;4985823;28;20257;-76
2022/08/12 00:48:40;;;;;;;0.00;0.00;;;20.70;62.70;;;;;;4998129;28;20029;-75
2022/08/12 00:51:07;;;;;;;0.00;0.00;;;20.70;62.70;;;;;;4980469;28;20102;-74
2022/08/12 00:53:34;;;;;;;0.00;0.00;;;20.60;62.80;;;;;;4983700;28;20086;-75
2022/08/12 00:56:02;;;;;;;0.00;0.00;;;20.60;63.20;;;;;;4986917;28;20061;-75
2022/08/12 00:58:30;;;;;;;0.00;0.00;;;20.60;63.20;;;;;;4999034;28;20192;-75
2022/08/12 01:01:00;;;;;;;0.00;0.00;;;20.60;63.00;;;;;;4996583;28;20026;-75
2022/08/12 01:11:27;;;;;;;0.00;0.00;;;20.60;62.80;;;;;;4986599;28;20022;-75
2022/08/12 01:11:49;;;;;;;0.00;0.00;;;20.50;62.80;;;;;;4992306;28;20260;-75
2022/08/12 01:14:18;;;;;;;0.00;0.00;;;20.50;62.80;;;;;;4991006;28;20102;-75
2022/08/12 01:16:46;;;;;;;0.00;0.00;;;20.50;63.00;;;;;;4992490;28;20034;-75
2022/08/12 01:19:13;;;;;;;0.00;0.00;;;20.40;63.20;;;;;;4992619;28;20387;-74
2022/08/12 01:22:08;;;;;;;0.00;0.00;;;20.40;64.10;;;;;;4991233;28;20062;-75
2022/08/12 01:24:47;;;;;;;0.00;0.00;;;20.40;63.70;;;;;;4978966;28;20090;-75
2022/08/12 01:27:14;;;;;;;0.00;0.00;;;20.30;64.00;;;;;;4987495;28;20039;-76
2022/08/12 01:29:45;;;;;;;0.00;0.00;;;20.30;64.10;;;;;;4989203;28;20305;-75
2022/08/12 01:32:15;;;;;;;0.00;0.00;;;20.30;64.20;;;;;;4986890;28;20023;-75
2022/08/12 01:35:04;;;;;;;0.00;0.00;;;20.30;64.20;;;;;;4964040;28;20010;-74
2022/08/12 01:37:35;;;;;;;0.00;0.00;;;20.60;64.20;;;;;;4980745;28;20026;-75
2022/08/12 01:40:03;;;;;;;0.00;0.00;;;20.30;63.90;;;;;;4987363;28;20034;-75
2022/08/12 01:42:32;;;;;;;0.00;0.00;;;20.20;64.00;;;;;;4980626;28;20030;-74
2022/08/12 01:45:00;;;;;;;0.00;0.00;;;20.20;64.10;;;;;;4978644;28;20031;-76
2022/08/12 01:47:51;;;;;;;0.00;0.00;;;20.20;64.20;;;;;;4989840;28;20026;-77
2022/08/12 01:50:44;;;;;;;0.00;0.00;;;20.20;64.60;;;;;;4979056;28;20228;-73
2022/08/12 01:53:14;;;;;;;0.00;0.00;;;20.20;64.50;;;;;;4968475;28;20030;-74
2022/08/12 01:55:46;;;;;;;0.00;0.00;;;20.10;64.80;;;;;;4991092;28;20025;-75
2022/08/12 01:58:17;;;;;;;0.00;0.00;;;20.10;64.90;;;;;;4980363;28;20242;-74
2022/08/12 02:00:50;;;;;;;0.00;0.00;;;20.10;65.00;;;;;;4984541;28;20038;-74
2022/08/12 02:03:25;;;;;;;0.00;0.00;;;20.10;65.10;;;;;;4991154;28;20022;-74
2022/08/12 02:11:50;;;;;;;0.00;0.00;;;20.00;65.50;;;;;;4981486;28;20454;-75
2022/08/12 02:14:41;;;;;;;0.00;0.00;;;19.90;65.50;;;;;;4976688;28;20078;-75
2022/08/12 02:17:07;;;;;;;0.00;0.00;;;20.00;65.70;;;;;;4981197;28;20061;-78
2022/08/12 02:20:11;;;;;;;0.00;0.00;;;19.90;65.80;;;;;;4986900;28;20188;-74
2022/08/12 02:22:42;;;;;;;0.00;0.00;;;19.90;65.90;;;;;;4985639;28;20336;-76
2022/08/12 02:25:14;;;;;;;0.00;0.00;;;19.90;66.00;;;;;;4987139;28;20054;-75
2022/08/12 02:27:50;;;;;;;0.00;0.00;;;19.80;66.20;;;;;;4991320;28;20050;-75
2022/08/12 02:30:21;;;;;;;0.00;0.00;;;19.80;66.30;;;;;;4985873;28;20041;-75
2022/08/12 02:32:48;;;;;;;0.00;0.00;;;19.80;66.60;;;;;;4992417;28;20029;-75
2022/08/12 02:35:20;;;;;;;0.00;0.00;;;19.70;66.60;;;;;;4982676;28;20078;-76
2022/08/12 02:37:48;;;;;;;0.00;0.00;;;19.70;66.90;;;;;;4969952;28;20125;-75
2022/08/12 02:40:16;;;;;;;0.00;0.00;;;19.70;67.10;;;;;;4971378;28;20061;-76
2022/08/12 02:43:05;;;;;;;0.00;0.00;;;19.60;67.20;;;;;;4977516;28;20034;-76
2022/08/12 02:45:52;;;;;;;0.00;0.00;;;19.60;67.30;;;;;;4980270;28;20085;-75
2022/08/12 02:48:29;;;;;;;0.00;0.00;;;19.60;67.50;;;;;;4982002;28;20045;-75
2022/08/12 02:51:00;;;;;;;0.00;0.00;;;19.60;67.70;;;;;;4982863;28;20332;-74
2022/08/12 02:53:27;;;;;;;0.00;0.00;;;19.60;67.90;;;;;;4985913;28;20241;-74
2022/08/12 02:55:53;;;;;;;0.00;0.00;;;19.60;67.90;;;;;;4990065;28;20026;-76
2022/08/12 02:58:20;;;;;;;0.00;0.00;;;19.60;68.10;;;;;;4985757;28;20029;-74
2022/08/12 03:00:46;;;;;;;0.00;0.00;;;19.50;68.10;;;;;;4987664;28;20315;-74
2022/08/12 03:03:13;;;;;;;0.00;0.00;;;19.50;68.00;;;;;;4988075;28;20029;-74
2022/08/12 03:05:56;;;;;;;0.00;0.00;;;19.50;67.90;;;;;;4981994;28;20218;-74
2022/08/12 03:08:24;;;;;;;0.00;0.00;;;19.50;68.40;;;;;;4967970;28;20310;-73
2022/08/12 03:10:53;;;;;;;0.00;0.00;;;19.50;68.20;;;;;;4985372;28;20061;-75
2022/08/12 03:13:25;;;;;;;0.00;0.00;;;19.40;68.40;;;;;;4990820;28;20026;-74
2022/08/12 03:15:54;;;;;;;0.00;0.00;;;19.40;68.40;;;;;;4990790;28;20022;-75
2022/08/12 03:18:42;;;;;;;0.00;0.00;;;19.50;68.60;;;;;;4984537;28;20049;-74
2022/08/12 03:21:08;;;;;;;0.00;0.00;;;19.50;68.50;;;;;;4984516;28;20019;-74
2022/08/12 03:23:38;;;;;;;0.00;0.00;;;19.40;68.50;;;;;;4989591;28;20088;-74
2022/08/12 03:26:05;;;;;;;0.00;0.00;;;19.50;68.60;;;;;;4985019;28;20194;-76
2022/08/12 03:28:49;;;;;;;0.00;0.00;;;19.40;68.40;;;;;;4975680;28;20034;-75
2022/08/12 03:31:17;;;;;;;0.00;0.00;;;19.40;68.50;;;;;;4975597;28;20337;-76
2022/08/12 03:33:45;;;;;;;0.00;0.00;;;19.50;68.60;;;;;;4987298;28;20076;-75
2022/08/12 03:36:19;;;;;;;0.00;0.00;;;19.40;68.70;;;;;;4988903;28;20026;-77
2022/08/12 03:39:17;;;;;;;0.00;0.00;;;19.40;68.80;;;;;;4989320;28;20093;-74
2022/08/12 03:41:40;;;;;;;0.00;0.00;;;19.40;68.80;;;;;;4982746;28;20041;-74
2022/08/12 04:01:24;;;;;;;0.00;0.00;;;19.40;69.20;;;;;;4986097;28;20030;-74
2022/08/12 04:03:53;;;;;;;0.00;0.00;;;19.40;69.30;;;;;;4986860;28;20010;-75
2022/08/12 04:06:23;;;;;;;0.00;0.00;;;19.40;68.80;;;;;;4983472;28;20054;-73
2022/08/12 04:08:50;;;;;;;0.00;0.00;;;19.40;68.40;;;;;;4988363;28;20329;-75
2022/08/12 04:14:11;;;;;;;0.00;0.00;;;19.40;69.60;;;;;;4981759;28;20160;-75
2022/08/12 04:16:38;;;;;;;0.00;0.00;;;19.50;69.40;;;;;;4977362;28;20034;-74
2022/08/12 04:19:05;;;;;;;0.00;0.00;;;19.60;68.80;;;;;;4977091;28;20050;-76
2022/08/12 04:21:35;;;;;;;0.00;0.00;;;19.60;68.50;;;;;;4986191;28;20214;-76
2022/08/12 04:24:01;;;;;;;0.00;0.00;;;19.60;69.20;;;;;;4985445;28;20034;-75
2022/08/12 04:26:28;;;;;;;0.00;0.00;;;19.60;69.90;;;;;;4981024;28;20089;-74
2022/08/12 04:28:55;;;;;;;0.00;0.00;;;19.60;69.20;;;;;;4977171;28;20166;-74
2022/08/12 04:31:31;;;;;;;0.00;0.00;;;19.60;69.10;;;;;;4983328;28;20030;-74
2022/08/12 04:33:59;;;;;;;0.00;0.00;;;19.70;69.10;;;;;;4985480;28;20062;-76
2022/08/12 04:36:25;;;;;;;0.00;0.00;;;19.70;69.20;;;;;;4969994;28;20118;-74
2022/08/12 04:38:53;;;;;;;0.00;0.00;;;19.80;69.20;;;;;;4986749;28;20099;-74
2022/08/12 04:41:19;;;;;;;0.00;0.00;;;19.80;69.20;;;;;;4986766;28;20053;-75
2022/08/12 04:43:47;;;;;;;0.00;0.00;;;19.90;69.30;;;;;;4978143;28;20467;-75
2022/08/12 04:46:13;;;;;;;0.00;0.00;;;19.90;69.10;;;;;;4982907;28;20033;-75
2022/08/12 04:48:40;;;;;;;0.00;0.00;;;19.90;68.70;;;;;;5000539;28;20535;-75
2022/08/12 04:51:05;;;;;;;0.00;0.00;;;19.90;68.90;;;;;;4975256;28;20305;-75
2022/08/12 04:53:31;;;;;;;0.00;0.00;;;19.90;68.60;;;;;;4985452;28;20037;-75
2022/08/12 04:55:59;;;;;;;0.00;0.00;;;19.90;67.90;;;;;;4992647;28;20030;-76
2022/08/12 04:58:25;;;;;;;0.00;0.00;;;19.90;68.60;;;;;;4983695;28;20253;-75
2022/08/12 05:00:50;;;;;;;0.00;0.00;;;19.90;68.80;;;;;;4985816;28;20022;-75
2022/08/12 05:03:16;;;;;;;0.00;0.00;;;19.90;68.80;;;;;;4988066;28;20054;-76
2022/08/12 05:05:42;;;;;;;0.00;0.00;;;19.90;68.90;;;;;;4969670;28;20023;-75
2022/08/12 05:08:12;;;;;;;0.00;0.00;;;19.90;69.10;;;;;;4983949;28;20038;-76
2022/08/12 05:10:38;;;;;;;0.00;0.00;;;19.90;69.50;;;;;;4990059;28;20085;-76
2022/08/12 05:13:10;;;;;;;0.00;0.00;;;19.90;69.60;;;;;;4973634;28;20353;-75
2022/08/12 05:15:40;;;;;;;0.00;0.00;;;19.80;69.50;;;;;;4994748;28;20045;-75
2022/08/12 05:18:06;;;;;;;0.00;0.00;;;19.80;69.80;;;;;;4990998;28;20049;-76
2022/08/12 05:20:32;;;;;;;0.00;0.00;;;19.70;70.00;;;;;;4991247;28;20034;-74
2022/08/12 05:23:13;;;;;;;0.00;0.00;;;19.80;70.00;;;;;;4986121;28;20305;-75
2022/08/12 05:25:41;;;;;;;0.00;0.00;;;19.70;70.20;;;;;;4989962;28;20025;-76
2022/08/12 05:28:07;;;;;;;0.00;0.00;;;19.70;70.50;;;;;;4982816;28;20049;-75
2022/08/12 05:30:33;;;;;;;0.00;0.00;;;19.70;70.40;;;;;;4982322;28;20018;-75
2022/08/12 05:33:04;;;;;;;0.00;0.00;;;19.70;70.50;;;;;;4963846;28;20053;-74
2022/08/12 05:35:35;;;;;;;0.00;0.00;;;19.70;70.80;;;;;;4964838;28;20105;-76
2022/08/12 05:40:45;;;;;;;0.00;0.00;;;19.80;70.80;;;;;;4992627;28;20042;-75
2022/08/12 05:43:10;;;;;;;0.00;0.00;;;19.80;71.00;;;;;;4968381;28;20022;-75
2022/08/12 05:45:36;;;;;;;0.00;0.00;;;19.80;70.80;;;;;;4993755;28;20317;-75
2022/08/12 05:48:02;;;;;;;0.00;0.00;;;19.80;70.80;;;;;;4990173;28;20038;-75
2022/08/12 05:50:27;;;;;;;0.00;0.00;;;19.70;70.80;;;;;;4986044;28;20097;-75
2022/08/12 05:52:53;;;;;;;0.00;0.00;;;19.70;70.90;;;;;;4984716;28;20115;-74
2022/08/12 05:55:19;;;;;;;0.00;0.00;;;19.70;71.00;;;;;;4993496;28;20041;-74
2022/08/12 05:57:47;;;;;;;0.00;0.00;;;19.80;71.30;;;;;;5000398;28;20041;-75
2022/08/12 06:00:15;;;;;;;0.00;0.00;;;19.70;71.00;;;;;;4991263;28;20289;-75
2022/08/12 06:02:41;;;;;;;0.00;0.00;;;19.80;71.20;;;;;;4984460;28;20015;-75
2022/08/12 06:05:09;;;;;;;0.00;0.00;;;19.70;71.20;;;;;;4989847;28;20811;-76
2022/08/12 06:07:44;;;;;;;0.00;0.00;;;19.70;71.40;;;;;;4980834;28;20213;-73
2022/08/12 06:10:10;;;;;;;0.00;0.00;;;19.70;71.40;;;;;;4985253;28;20069;-76
2022/08/12 06:12:36;;;;;;;0.00;0.00;;;19.80;71.20;;;;;;4981130;28;20027;-74
2022/08/12 06:15:03;;;;;;;0.00;0.00;;;19.90;71.30;;;;;;4986916;28;20042;-75
2022/08/12 06:17:29;;;;;;;0.00;0.00;;;20.00;71.30;;;;;;4971735;28;20248;-75
2022/08/12 06:19:59;;;;;;;0.00;0.00;;;20.10;71.10;;;;;;4978610;28;20101;-77
2022/08/12 06:22:25;;;;;;;0.00;0.00;;;20.30;70.70;;;;;;4994477;28;20034;-75
2022/08/12 06:24:52;;;;;;;0.00;0.00;;;20.80;71.00;;;;;;4986000;28;20022;-75
2022/08/12 06:27:18;;;;;;;0.00;0.00;;;21.70;69.50;;;;;;4982996;28;20030;-76
2022/08/12 06:29:44;;;;;;;0.00;0.00;;;22.80;66.20;;;;;;4988814;28;20241;-76
2022/08/12 06:32:09;;;;;;;0.00;0.00;;;23.90;63.00;;;;;;4992941;28;20029;-76
2022/08/12 06:34:35;;;;;;;0.00;0.00;;;24.80;60.20;;;;;;4988794;28;20026;-76
2022/08/12 06:37:01;;;;;;;0.00;0.00;;;25.70;58.70;;;;;;4992479;28;20022;-74
2022/08/12 06:39:26;;;;;;;0.00;0.00;;;26.30;56.30;;;;;;4990736;28;20245;-75
2022/08/12 06:44:38;;;;;;;0.00;0.00;;;27.40;55.20;;;;;;4987193;28;20088;-76
2022/08/12 06:47:04;;;;;;;0.00;0.00;;;28.30;53.50;;;;;;4991018;28;20034;-77
2022/08/12 06:49:35;;;;;;;0.00;0.00;;;28.70;51.70;;;;;;4991095;28;20045;-75
2022/08/12 06:52:03;;;;;;;0.00;0.00;;;28.90;51.30;;;;;;4992559;28;20337;-75
2022/08/12 06:54:29;;;;;;;0.00;0.00;;;29.50;51.00;;;;;;4974420;28;20371;-76
2022/08/12 06:56:55;;;;;;;0.00;0.00;;;29.80;49.90;;;;;;4988666;28;20302;-76
2022/08/12 06:59:21;;;;;;;0.00;0.00;;;30.00;49.00;;;;;;4972295;28;20098;-77
2022/08/12 07:01:47;;;;;;;0.00;0.00;;;29.80;48.40;;;;;;4989447;28;20089;-77
2022/08/12 07:04:14;;;;;;;0.00;0.00;;;29.60;48.60;;;;;;4992529;28;20080;-75
2022/08/12 07:06:40;;;;;;;0.00;0.00;;;28.80;49.50;;;;;;4990538;28;20037;-76
2022/08/12 07:09:06;;;;;;;0.00;0.00;;;28.20;50.50;;;;;;4987437;28;20018;-76
2022/08/12 07:11:32;;;;;;;0.00;0.00;;;27.20;51.60;;;;;;4991486;28;20057;-76
2022/08/12 07:14:00;;;;;;;0.00;0.00;;;26.30;53.40;;;;;;4994540;28;20026;-76
2022/08/12 07:16:50;;;;;;;0.00;0.00;;;25.60;54.80;;;;;;4970187;28;20010;-75
2022/08/12 07:19:13;;;;;;;0.00;0.00;;;25.20;56.10;;;;;;4987996;28;20217;-78
2022/08/12 07:21:38;;;;;;;0.00;0.00;;;24.80;57.20;;;;;;4974118;28;20097;-76
2022/08/12 07:24:04;;;;;;;0.00;0.00;;;24.50;57.80;;;;;;4990028;28;20014;-75
2022/08/12 07:26:30;;;;;;;0.00;0.00;;;24.30;58.50;;;;;;4987972;28;20046;-76
2022/08/12 07:28:56;;;;;;;0.00;0.00;;;24.20;59.00;;;;;;4989925;28;20125;-76
2022/08/12 07:31:21;;;;;;;0.00;0.00;;;23.90;59.20;;;;;;4968781;28;20302;-74
2022/08/12 07:33:48;;;;;;;0.00;0.00;;;23.80;59.50;;;;;;4990563;28;20023;-76
2022/08/12 07:36:15;;;;;;;0.00;0.00;;;23.70;59.60;;;;;;4975873;28;20026;-75
2022/08/12 07:38:50;;;;;;;0.00;0.00;;;23.60;60.20;;;;;;4973672;28;20042;-75
2022/08/12 07:41:17;;;;;;;0.00;0.00;;;23.50;60.00;;;;;;4986724;28;20010;-75
2022/08/12 07:43:55;;;;;;;0.00;0.00;;;23.30;60.50;;;;;;4991873;28;20022;-76
2022/08/12 07:46:25;;;;;;;0.00;0.00;;;23.20;60.70;;;;;;4990010;28;20030;-74
2022/08/12 07:48:53;;;;;;;0.00;0.00;;;23.10;60.80;;;;;;4975177;28;20259;-75
2022/08/12 07:51:20;;;;;;;0.00;0.00;;;23.00;61.10;;;;;;4988549;28;20033;-75
2022/08/12 07:53:47;;;;;;;0.00;0.00;;;23.00;61.40;;;;;;4976541;28;20306;-75
2022/08/12 07:56:14;;;;;;;0.00;0.00;;;22.90;61.40;;;;;;4990553;28;20014;-75
2022/08/12 07:58:40;;;;;;;0.00;0.00;;;23.00;61.30;;;;;;5004196;28;20273;-74
2022/08/12 08:01:14;;;;;;;0.00;0.00;;;23.00;61.30;;;;;;4990458;28;20030;-72
2022/08/12 08:04:54;;;;;;;0.00;0.00;;;22.90;61.20;;;;;;4988511;28;20026;-75
2022/08/12 08:06:31;;;;;;;0.00;0.00;;;22.90;61.50;;;;;;4985360;28;20073;-76
2022/08/12 08:08:58;;;;;;;0.00;0.00;;;22.90;61.50;;;;;;4984196;28;20070;-78
2022/08/12 08:14:09;;;;;;;0.00;0.00;;;22.80;61.70;;;;;;4987876;28;20200;-74
2022/08/12 08:16:36;;;;;;;0.00;0.00;;;22.80;61.70;;;;;;4990068;28;20037;-74
2022/08/12 08:19:03;;;;;;;0.00;0.00;;;22.90;61.20;;;;;;4971032;28;20065;-75
2022/08/12 08:21:34;;;;;;;0.00;0.00;;;22.90;61.10;;;;;;4990469;28;20026;-77
2022/08/12 08:24:16;;;;;;;0.00;0.00;;;23.00;60.50;;;;;;4988106;28;20029;-73
2022/08/12 08:26:47;;;;;;;0.00;0.00;;;23.00;60.10;;;;;;4969134;28;20101;-74
2022/08/12 08:29:15;;;;;;;0.00;0.00;;;23.00;59.00;;;;;;4988598;28;20411;-76
2022/08/12 08:31:49;;;;;;;0.00;0.00;;;23.10;59.50;;;;;;4990567;28;20089;-75
2022/08/12 08:34:16;;;;;;;0.00;0.00;;;23.10;60.00;;;;;;4987045;28;20041;-74
2022/08/12 08:36:42;;;;;;;0.00;0.00;;;23.20;60.40;;;;;;4981206;28;20019;-75
2022/08/12 08:39:09;;;;;;;0.00;0.00;;;23.20;60.10;;;;;;4984170;28;20089;-76
2022/08/12 08:44:20;;;;;;;0.00;0.00;;;23.20;60.10;;;;;;4986722;28;20034;-74
2022/08/12 08:46:48;;;;;;;0.00;0.00;;;23.30;59.50;;;;;;4986792;28;20138;-75
2022/08/12 08:49:16;;;;;;;0.00;0.00;;;23.30;59.40;;;;;;4990479;28;20038;-77
2022/08/12 08:51:44;;;;;;;0.00;0.00;;;23.40;58.90;;;;;;4969397;28;20062;-75
2022/08/12 08:54:11;;;;;;;0.00;0.00;;;23.50;58.50;;;;;;4962118;28;20285;-76
2022/08/12 08:56:45;;;;;;;0.00;0.00;;;23.80;57.90;;;;;;4980453;28;20379;-76
2022/08/12 08:59:11;;;;;;;0.00;0.00;;;24.30;57.30;;;;;;4989017;28;20026;-75
2022/08/12 09:01:38;;;;;;;0.00;0.00;;;25.00;56.70;;;;;;4989046;28;20053;-76
2022/08/12 09:04:06;;;;;;;0.00;0.00;;;25.80;55.90;;;;;;4991655;28;20018;-76
2022/08/12 09:06:32;;;;;;;;;;;26.50;54.10;;;;;;4972150;28;20655;-76
2022/08/12 09:08:58;;;;;;;0.00;0.00;;;27.70;53.50;;;;;;4972785;28;19910;-75
2022/08/12 09:14:09;;;;;;;0.00;0.00;;;31.40;50.50;;;;;;4989953;28;20037;-77
2022/08/12 09:16:37;;;;;;;0.00;0.00;;;33.40;44.50;;;;;;4973146;28;20030;-75
2022/08/12 09:19:04;;;;;;;0.00;0.00;;;34.80;42.40;;;;;;4973909;28;20030;-75
2022/08/12 09:21:30;;;;;;;;;;;35.90;41.30;;;;;;4991786;28;20023;-75
2022/08/12 09:23:59;;;;;;;0.00;0.00;;;37.00;40.40;;;;;;4988360;28;19972;-75
2022/08/12 09:26:28;;;;;;;0.00;0.00;;;38.10;39.60;;;;;;4990742;28;20022;-77
2022/08/12 09:28:55;;;;;;;0.00;0.00;;;38.10;39.20;;;;;;4973882;28;20022;-75
2022/08/12 09:31:20;;;;;;;;;;;38.40;38.50;;;;;;4992921;28;20045;-76
2022/08/12 09:33:46;;;;;;;0.00;0.00;;;39.60;37.70;;;;;;4977979;28;19921;-77
2022/08/12 09:36:13;;;;;;;0.00;0.00;;;39.60;36.80;;;;;;4991108;28;20058;-75
2022/08/12 09:38:39;;;;;;;0.00;0.00;;;40.30;37.00;;;;;;4986244;28;20077;-76
2022/08/12 09:41:06;;;;;;;0.00;0.00;;;40.90;36.10;;;;;;4987766;28;20170;-76
2022/08/12 09:46:16;;;;;;;0.00;0.00;;;40.90;35.70;;;;;;4986359;28;20331;-78
2022/08/12 09:48:43;;;;;;;0.00;0.00;;;41.20;34.80;;;;;;4972426;28;20031;-76
2022/08/12 09:51:11;;;;;;;0.00;0.00;;;41.60;35.60;;;;;;4985163;28;20050;-74
2022/08/12 09:53:38;;;;;;;0.00;0.00;;;42.90;34.60;;;;;;4983932;28;20052;-76
2022/08/12 09:56:04;;;;;;;0.00;0.00;;;42.50;34.50;;;;;;4989643;28;20021;-74
2022/08/12 09:58:30;;;;;;;0.00;0.00;;;42.60;34.40;;;;;;4987774;28;20030;-74
2022/08/12 10:01:03;;;;;;;0.00;0.00;;;42.60;33.40;;;;;;4992609;28;20101;-75
2022/08/12 10:03:33;;;;;;;0.00;0.00;;;42.30;34.00;;;;;;4994168;28;20217;-75
2022/08/12 10:06:01;;;;;;;0.00;0.00;;;42.80;33.10;;;;;;4990531;28;20026;-76
2022/08/12 10:08:29;;;;;;;0.00;0.00;;;42.60;33.30;;;;;;4988739;28;20022;-76
2022/08/12 10:13:40;;;;;;;0.00;0.00;;;42.50;33.50;;;;;;4992522;28;20128;-74
2022/08/12 10:16:16;;;;;;;0.00;0.00;;;42.30;33.10;;;;;;4976181;28;20046;-76
2022/08/12 10:18:43;;;;;;;0.00;0.00;;;42.20;33.50;;;;;;4986186;28;20026;-74
2022/08/12 10:21:13;;;;;;;0.00;0.00;;;42.80;33.80;;;;;;5002549;28;20305;-75
2022/08/12 10:23:41;;;;;;;0.00;0.00;;;43.80;32.90;;;;;;4986187;28;20022;-77
2022/08/12 10:31:37;;;;;;;0.00;0.00;;;43.10;32.80;;;;;;4985581;28;20329;-77
2022/08/12 10:34:04;;;;;;;0.00;0.00;;;43.00;32.80;;;;;;4986890;28;20046;-74
2022/08/12 10:36:37;;;;;;;0.00;0.00;;;43.40;32.30;;;;;;4975220;28;20031;-76
2022/08/12 10:39:03;;;;;;;0.00;0.00;;;42.80;32.00;;;;;;4990383;28;20026;-76
2022/08/12 10:44:14;;;;;;;0.00;0.00;;;44.80;32.70;;;;;;4987198;28;20037;-76
2022/08/12 10:46:41;;;;;;;0.00;0.00;;;45.10;31.50;;;;;;4986836;28;20090;-78
2022/08/12 10:49:10;;;;;;;0.00;0.00;;;45.20;32.20;;;;;;4985831;28;20025;-77
2022/08/12 10:51:35;;;;;;;0.00;0.00;;;45.50;31.50;;;;;;4966106;28;20030;-75
2022/08/12 10:54:01;;;;;;;0.00;0.00;;;45.80;31.20;;;;;;4949606;28;20330;-76
2022/08/12 10:56:27;;;;;;;0.00;0.00;;;46.40;30.50;;;;;;4989140;28;20033;-77
2022/08/12 10:58:54;;;;;;;0.00;0.00;;;45.00;31.00;;;;;;4992384;28;20306;-77
2022/08/12 11:01:20;;;;;;;0.00;0.00;;;44.80;30.90;;;;;;4971771;28;20018;-75
2022/08/12 11:03:46;;;;;;;0.00;0.00;;;44.20;31.20;;;;;;4989453;28;20022;-77
2022/08/12 11:06:13;;;;;;;0.00;0.00;;;44.60;31.30;;;;;;4974184;28;20129;-76
2022/08/12 11:08:40;;;;;;;0.00;0.00;;;45.50;31.80;;;;;;4969344;28;20105;-77
2022/08/12 11:11:07;;;;;;;0.00;0.00;;;45.70;30.00;;;;;;4989015;28;20096;-76
2022/08/12 11:13:37;;;;;;;0.00;0.00;;;44.90;29.90;;;;;;4990975;28;20048;-76
2022/08/12 11:16:05;;;;;;;0.00;0.00;;;44.60;30.00;;;;;;4973152;28;20018;-77
2022/08/12 11:18:31;;;;;;;0.00;0.00;;;44.10;30.40;;;;;;4992364;28;20023;-76
2022/08/12 11:20:58;;;;;;;0.00;0.00;;;44.20;30.20;;;;;;4993405;28;20026;-78
2022/08/12 11:23:24;;;;;;;0.00;0.00;;;44.80;30.30;;;;;;4988709;28;20026;-76
2022/08/12 11:25:50;;;;;;;0.00;0.00;;;44.60;30.00;;;;;;4986904;28;20022;-76
2022/08/12 11:28:16;;;;;;;0.00;0.00;;;46.00;30.10;;;;;;4976549;28;20026;-77
2022/08/12 11:30:42;;;;;;;0.00;0.00;;;46.20;29.70;;;;;;4988988;28;20082;-76
2022/08/12 11:33:10;;;;;;;0.00;0.00;;;46.00;30.00;;;;;;4984064;28;20047;-76
2022/08/12 11:35:37;;;;;;;0.00;0.00;;;45.60;29.70;;;;;;4988479;28;20026;-75
2022/08/12 11:38:04;;;;;;;0.00;0.00;;;45.80;29.90;;;;;;4978252;28;20038;-78
2022/08/12 11:40:30;;;;;;;0.00;0.00;;;45.80;29.10;;;;;;4974976;28;20042;-77
2022/08/12 11:42:59;;;;;;;0.00;0.00;;;44.00;29.10;;;;;;4987028;28;20149;-78
2022/08/12 11:45:31;;;;;;;0.00;0.00;;;43.00;30.10;;;;;;4962509;28;20069;-76
2022/08/12 11:48:00;;;;;;;0.00;0.00;;;42.50;30.30;;;;;;4984271;28;20113;-75
2022/08/12 11:50:25;;;;;;;0.00;0.00;;;42.00;30.50;;;;;;4987934;28;20141;-75
2022/08/12 11:52:51;;;;;;;0.00;0.00;;;42.70;30.80;;;;;;4979539;28;20199;-75
2022/08/12 11:55:18;;;;;;;0.00;0.00;;;42.10;30.20;;;;;;4961835;28;20052;-78
2022/08/12 11:58:02;;;;;;;0.00;0.00;;;40.70;30.90;;;;;;4978624;28;20034;-75
2022/08/12 12:00:27;;;;;;;0.00;0.00;;;40.00;31.30;;;;;;4985731;28;20030;-75
2022/08/12 12:02:53;;;;;;;;;;;39.30;31.40;;;;;;4982399;28;20026;-74
2022/08/12 12:05:19;;;;;;;0.00;0.00;;;38.60;31.70;;;;;;5001293;28;19950;-74
2022/08/12 12:07:45;;;;;;;;;;;37.40;32.50;;;;;;4981227;28;20038;-75
2022/08/12 12:10:13;;;;;;;0.00;0.00;;;36.30;33.30;;;;;;4985608;28;19988;-75
2022/08/12 12:12:39;;;;;;;0.00;0.00;;;35.20;34.30;;;;;;4980619;28;20054;-82
2022/08/12 12:15:05;;;;;;;0.00;0.00;;;34.40;35.20;;;;;;4982182;28;20041;-76
2022/08/12 12:17:35;;;;;;;0.00;0.00;;;33.40;35.70;;;;;;4981539;28;20344;-78
2022/08/12 12:20:01;;;;;;;0.00;0.00;;;32.70;36.50;;;;;;4965181;28;20053;-74
2022/08/12 12:22:27;;;;;;;0.00;0.00;;;32.10;37.50;;;;;;4991132;28;20117;-75
2022/08/12 12:24:53;;;;;;;0.00;0.00;;;31.80;37.90;;;;;;5009225;28;20053;-74
2022/08/12 12:27:19;;;;;;;0.00;0.00;;;31.50;37.70;;;;;;5007520;28;20292;-75
2022/08/12 12:29:45;;;;;;;0.00;0.00;;;31.40;38.20;;;;;;5013725;28;20013;-75
2022/08/12 12:32:11;;;;;;;0.00;0.00;;;31.30;38.00;;;;;;4994355;28;20030;-75
2022/08/12 12:34:37;;;;;;;0.00;0.00;;;31.10;39.40;;;;;;5013738;28;20052;-75
2022/08/12 12:37:03;;;;;;;0.00;0.00;;;31.00;39.10;;;;;;5009783;28;20030;-74
2022/08/12 12:39:29;;;;;;;0.00;0.00;;;30.80;38.80;;;;;;4987652;28;20022;-75
2022/08/12 12:41:54;;;;;;;0.00;0.00;;;30.60;38.80;;;;;;5003186;28;20269;-75
2022/08/12 12:44:20;;;;;;;0.00;0.00;;;30.60;39.20;;;;;;5003332;28;20173;-72
2022/08/12 12:46:47;;;;;;;0.00;0.00;;;30.40;38.90;;;;;;4999692;28;20060;-74
2022/08/12 12:49:13;;;;;;;0.00;0.00;;;30.20;39.40;;;;;;4997777;28;20249;-73
2022/08/12 12:51:39;;;;;;;0.00;0.00;;;29.90;39.90;;;;;;5000665;28;20034;-74
2022/08/12 12:54:04;;;;;;;0.00;0.00;;;29.80;39.70;;;;;;5002315;28;20085;-74
2022/08/12 12:56:30;;;;;;;0.00;0.00;;;29.80;39.60;;;;;;4990588;28;20021;-74
2022/08/12 12:58:56;;;;;;;0.00;0.00;;;29.80;39.70;;;;;;5017710;28;20058;-74
2022/08/12 13:01:25;;;;;;;0.00;0.00;;;29.80;39.70;;;;;;5022510;28;20197;-74
